createdAt,value
2024-04-03T00:01:32.247Z,98997.07
2024-04-03T00:03:59.049Z,99003.92
2024-04-03T00:06:25.933Z,99002.56
2024-04-03T00:08:52.953Z,98995.11
2024-04-03T00:11:19.743Z,98998.15
2024-04-03T00:13:46.586Z,99001.98
2024-04-03T00:16:13.507Z,98997.65
2024-04-03T00:18:40.334Z,98998.45
2024-04-03T00:21:07.184Z,98999.61
2024-04-03T00:23:34.136Z,99001.27
2024-04-03T00:26:01.861Z,99007.27
2024-04-03T00:28:30.215Z,99006.73
2024-04-03T00:30:57.277Z,99005.07
2024-04-03T00:33:24.177Z,99013.95
2024-04-03T00:35:57.587Z,99018.34
2024-04-03T00:38:24.946Z,99025.65
2024-04-03T00:41:01.592Z,99025.86
2024-04-03T00:43:29.116Z,99023.08
2024-04-03T00:45:58.647Z,99030.08
2024-04-03T00:48:25.537Z,99025.48
2024-04-03T00:50:53.100Z,99023.77
2024-04-03T00:53:20.123Z,99026.64
2024-04-03T00:55:47.015Z,99026.52
2024-04-03T00:58:13.801Z,99025.48
2024-04-03T01:00:40.732Z,99029.02
2024-04-03T01:03:09.517Z,99032.41
2024-04-03T01:05:36.389Z,99030.44
2024-04-03T01:08:03.810Z,99032.86
2024-04-03T01:10:30.886Z,99037.84
2024-04-03T01:12:58.837Z,99044.97
2024-04-03T01:15:25.784Z,99051.16
2024-04-03T01:17:52.646Z,99048.83
2024-04-03T01:20:19.677Z,99056.15
2024-04-03T01:22:47.858Z,99060.48
2024-04-03T01:25:14.716Z,99065.02
2024-04-03T01:27:41.557Z,99067.76
2024-04-03T01:30:08.472Z,99071.84
2024-04-03T01:32:37.165Z,99073.02
2024-04-03T01:35:04.724Z,99081.81
2024-04-03T01:37:31.766Z,99082.80
2024-04-03T01:39:58.647Z,99088.21
2024-04-03T01:42:26.452Z,99091.65
2024-04-03T01:44:53.579Z,99089.11
2024-04-03T01:47:20.418Z,99083.58
2024-04-03T01:49:47.235Z,99077.40
2024-04-03T01:52:14.088Z,99073.48
2024-04-03T01:54:40.948Z,99078.52
2024-04-03T01:57:07.871Z,99083.05
2024-04-03T01:59:34.679Z,99090.52
2024-04-03T02:02:01.743Z,99102.05
2024-04-03T02:04:28.951Z,99109.27
2024-04-03T02:06:55.925Z,99112.34
2024-04-03T02:09:22.801Z,99116.32
2024-04-03T02:11:49.623Z,99119.70
2024-04-03T02:14:16.467Z,99127.13
2024-04-03T02:16:47.021Z,99130.56
2024-04-03T02:19:14.318Z,99130.18
2024-04-03T02:21:41.223Z,99131.15
2024-04-03T02:24:16.041Z,99126.26
2024-04-03T02:26:47.718Z,99129.62
2024-04-03T02:29:14.712Z,99133.52
2024-04-03T02:31:41.816Z,99132.77
2024-04-03T02:34:09.066Z,99134.20
2024-04-03T02:36:35.863Z,99134.63
2024-04-03T02:39:03.309Z,99134.98
2024-04-03T02:41:30.486Z,99137.12
2024-04-03T02:43:57.307Z,99135.27
2024-04-03T02:46:24.503Z,99139.33
2024-04-03T02:48:51.346Z,99140.39
2024-04-03T02:51:18.862Z,99150.56
2024-04-03T02:53:45.797Z,99151.40
2024-04-03T02:56:12.617Z,99149.60
2024-04-03T02:58:39.535Z,99159.83
2024-04-03T03:01:10.418Z,99165.70
2024-04-03T03:03:37.889Z,99167.31
2024-04-03T03:06:06.054Z,99166.79
2024-04-03T03:08:34.168Z,99165.32
2024-04-03T03:11:02.081Z,99168.08
2024-04-03T03:13:29.449Z,99167.52
2024-04-03T03:15:57.778Z,99163.60
2024-04-03T03:18:29.494Z,99167.70
2024-04-03T03:20:56.840Z,99170.30
2024-04-03T03:23:23.928Z,99179.39
2024-04-03T03:25:53.147Z,99184.27
2024-04-03T03:28:20.733Z,99191.88
2024-04-03T03:30:51.367Z,99188.27
2024-04-03T03:33:18.681Z,99187.79
2024-04-03T03:35:57.251Z,99188.58
2024-04-03T03:38:24.261Z,99182.08
2024-04-03T03:40:54.539Z,99187.92
2024-04-03T03:43:21.793Z,99194.61
2024-04-03T03:45:52.211Z,99194.58
2024-04-03T03:48:19.499Z,99197.55
2024-04-03T03:51:05.312Z,99203.65
2024-04-03T03:53:33.215Z,99203.02
2024-04-03T03:56:09.601Z,99210.40
2024-04-03T03:58:36.644Z,99213.59
2024-04-03T04:01:05.056Z,99221.02
2024-04-03T04:03:32.156Z,99221.05
2024-04-03T04:06:02.423Z,99224.43
2024-04-03T04:08:30.846Z,99231.15
2024-04-03T04:11:00.026Z,99234.84
2024-04-03T04:13:27.734Z,99243.08
2024-04-03T04:15:54.663Z,99248.06
2024-04-03T04:18:21.741Z,99250.19
2024-04-03T04:20:59.423Z,99257.27
2024-04-03T04:23:26.752Z,99257.20
2024-04-03T04:25:57.508Z,99257.61
2024-04-03T04:28:24.774Z,99259.75
2024-04-03T04:30:59.097Z,99264.16
2024-04-03T04:33:26.194Z,99263.80
2024-04-03T04:35:56.925Z,99267.23
2024-04-03T04:38:25.280Z,99260.16
2024-04-03T04:41:02.064Z,99262.45
2024-04-03T04:43:29.735Z,99261.04
2024-04-03T04:46:05.040Z,99261.27
2024-04-03T04:48:33.077Z,99264.35
2024-04-03T04:51:03.364Z,99264.96
2024-04-03T04:53:30.507Z,99272.29
2024-04-03T04:56:04.981Z,99272.30
2024-04-03T04:58:32.407Z,99271.39
2024-04-03T05:01:05.773Z,99272.88
2024-04-03T05:03:33.123Z,99270.99
2024-04-03T05:06:00.181Z,99274.16
2024-04-03T05:08:27.642Z,99274.52
2024-04-03T05:10:58.692Z,99274.84
2024-04-03T05:13:30.189Z,99274.40
2024-04-03T05:15:57.615Z,99277.55
2024-04-03T05:18:24.611Z,99282.92
2024-04-03T05:20:51.665Z,99287.23
2024-04-03T05:23:18.914Z,99280.89
2024-04-03T05:28:12.756Z,99292.77
2024-04-03T05:30:40.395Z,99291.48
2024-04-03T05:33:07.475Z,99288.83
2024-04-03T05:35:34.598Z,99294.13
2024-04-03T05:38:03.088Z,99296.27
2024-04-03T05:40:30.112Z,99300.27
2024-04-03T05:42:57.952Z,99302.30
2024-04-03T05:45:24.866Z,99306.48
2024-04-03T05:47:52.135Z,99303.75
2024-04-03T05:50:19.068Z,99303.27
2024-04-03T05:52:46.009Z,99307.64
2024-04-03T05:55:14.714Z,99311.45
2024-04-03T05:57:41.932Z,99311.58
2024-04-03T06:00:09.638Z,99309.77
2024-04-03T06:02:39.453Z,99308.53
2024-04-03T06:05:06.478Z,99308.64
2024-04-03T06:07:35.322Z,99313.75
2024-04-03T06:10:03.323Z,99318.13
2024-04-03T06:12:31.021Z,99312.95
2024-04-03T06:14:58.163Z,99310.11
2024-04-03T06:17:25.738Z,99312.74
2024-04-03T06:19:53.186Z,99314.66
2024-04-03T06:22:20.085Z,99310.75
2024-04-03T06:24:47.007Z,99314.08
2024-04-03T06:27:16.932Z,99309.53
2024-04-03T06:29:43.860Z,99306.23
2024-04-03T06:32:11.938Z,99307.08
2024-04-03T06:34:38.916Z,99306.31
2024-04-03T06:37:06.526Z,99319.70
2024-04-03T06:39:34.486Z,99315.65
2024-04-03T06:42:01.992Z,99318.14
2024-04-03T06:44:29.013Z,99321.25
2024-04-03T06:47:02.157Z,99319.16
2024-04-03T06:49:30.589Z,99321.53
2024-04-03T06:51:57.586Z,99323.28
2024-04-03T06:54:24.873Z,99319.86
2024-04-03T06:56:51.713Z,99322.45
2024-04-03T06:59:18.820Z,99322.04
2024-04-03T07:01:48.407Z,99322.95
2024-04-03T07:04:15.781Z,99326.47
2024-04-03T07:06:42.734Z,99332.66
2024-04-03T07:09:09.709Z,99321.80
2024-04-03T07:11:36.706Z,99326.98
2024-04-03T07:14:03.546Z,99317.61
2024-04-03T07:16:30.741Z,99318.19
2024-04-03T07:18:57.895Z,99320.55
2024-04-03T07:21:27.614Z,99324.68
2024-04-03T07:23:55.820Z,99327.38
2024-04-03T07:26:24.612Z,99325.42
2024-04-03T07:28:51.622Z,99318.48
2024-04-03T07:31:19.017Z,99326.27
2024-04-03T07:33:45.890Z,99336.22
2024-04-03T07:36:12.769Z,99338.65
2024-04-03T07:38:39.858Z,99343.73
2024-04-03T07:41:06.695Z,99340.01
2024-04-03T07:43:34.033Z,99342.35
2024-04-03T07:46:01.183Z,99342.31
2024-04-03T07:48:28.115Z,99337.89
2024-04-03T07:51:01.920Z,99341.16
2024-04-03T07:53:28.856Z,99345.48
2024-04-03T07:55:55.706Z,99345.40
2024-04-03T07:58:22.701Z,99345.62
2024-04-03T08:01:01.322Z,99349.36
2024-04-03T08:03:33.217Z,99349.64
2024-04-03T08:06:01.042Z,99347.95
2024-04-03T08:08:29.831Z,99350.06
2024-04-03T08:11:01.562Z,99352.45
2024-04-03T08:13:28.626Z,99351.07
2024-04-03T08:16:03.760Z,99346.23
2024-04-03T08:18:32.024Z,99353.89
2024-04-03T08:21:07.553Z,99343.92
2024-04-03T08:23:35.042Z,99349.14
2024-04-03T08:26:07.058Z,99353.23
2024-04-03T08:28:38.237Z,99355.86
2024-04-03T08:31:13.862Z,99362.11
2024-04-03T08:33:42.060Z,99359.40
2024-04-03T08:36:11.801Z,99361.80
2024-04-03T08:38:39.222Z,99360.33
2024-04-03T08:41:06.636Z,99368.20
2024-04-03T08:43:37.128Z,99366.67
2024-04-03T08:46:04.433Z,99373.52
2024-04-03T08:48:32.152Z,99371.88
2024-04-03T08:50:59.043Z,99371.30
2024-04-03T08:53:26.189Z,99369.02
2024-04-03T08:55:54.303Z,99371.39
2024-04-03T08:58:21.776Z,99369.73
2024-04-03T09:00:49.116Z,99367.39
2024-04-03T09:03:16.160Z,99362.40
2024-04-03T09:05:43.100Z,99363.84
2024-04-03T09:08:11.412Z,99358.90
2024-04-03T09:10:48.493Z,99362.26
2024-04-03T09:13:15.510Z,99362.93
2024-04-03T09:15:42.782Z,99366.92
2024-04-03T09:18:10.854Z,99371.11
2024-04-03T09:20:41.508Z,99376.14
2024-04-03T09:23:10.412Z,99381.10
2024-04-03T09:25:37.915Z,99375.41
2024-04-03T09:28:06.715Z,99380.39
2024-04-03T09:30:34.539Z,99382.84
2024-04-03T09:33:07.563Z,99382.71
2024-04-03T09:35:36.369Z,99380.75
2024-04-03T09:38:04.016Z,99379.70
2024-04-03T09:40:36.211Z,99383.46
2024-04-03T09:43:10.400Z,99383.92
2024-04-03T09:45:37.349Z,99380.50
2024-04-03T09:48:07.997Z,99376.98
2024-04-03T09:50:47.122Z,99381.89
2024-04-03T09:53:18.684Z,99382.63
2024-04-03T09:55:48.190Z,99384.20
2024-04-03T09:58:16.063Z,99384.52
2024-04-03T10:00:55.437Z,99391.90
2024-04-03T10:03:23.964Z,99394.76
2024-04-03T10:06:01.086Z,99388.89
2024-04-03T10:08:41.476Z,99404.46
2024-04-03T10:11:09.952Z,99406.45
2024-04-03T10:13:40.200Z,99408.21
2024-04-03T10:16:14.266Z,99415.63
2024-04-03T10:18:50.251Z,99423.89
2024-04-03T10:21:17.267Z,99424.15
2024-04-03T10:23:47.900Z,99415.96
2024-04-03T10:26:19.100Z,99422.66
2024-04-03T10:28:48.955Z,99421.36
2024-04-03T10:31:20.067Z,99419.84
2024-04-03T10:33:52.204Z,99431.36
2024-04-03T10:36:19.470Z,99435.83
2024-04-03T10:38:47.039Z,99439.27
2024-04-03T10:41:17.129Z,99438.51
2024-04-03T10:43:56.042Z,99440.09
2024-04-03T10:49:14.026Z,99437.82
2024-04-03T10:51:41.487Z,99432.61
2024-04-03T10:54:10.848Z,99434.10
2024-04-03T10:56:37.850Z,99435.14
2024-04-03T10:59:04.933Z,99435.44
2024-04-03T11:01:33.028Z,99437.39
2024-04-03T11:04:05.299Z,99441.86
2024-04-03T11:06:32.977Z,99442.43
2024-04-03T11:09:03.670Z,99441.65
2024-04-03T11:11:32.058Z,99441.06
2024-04-03T11:14:02.478Z,99451.96
2024-04-03T11:16:29.735Z,99456.60
2024-04-03T11:18:56.747Z,99463.52
2024-04-03T11:21:24.492Z,99466.93
2024-04-03T11:23:54.464Z,99460.27
2024-04-03T11:26:22.237Z,99465.89
2024-04-03T11:28:49.096Z,99468.77
2024-04-03T11:31:16.003Z,99465.37
2024-04-03T11:33:43.465Z,99463.22
2024-04-03T11:36:11.303Z,99462.17
2024-04-03T11:38:39.738Z,99454.67
2024-04-03T11:41:06.779Z,99459.23
2024-04-03T11:43:33.936Z,99459.55
2024-04-03T11:46:04.495Z,99468.74
2024-04-03T11:48:40.259Z,99473.64
2024-04-03T11:51:07.293Z,99468.63
2024-04-03T11:53:34.338Z,99469.41
2024-04-03T11:56:02.496Z,99463.83
2024-04-03T11:58:29.899Z,99463.34
2024-04-03T12:00:56.730Z,99455.29
2024-04-03T12:03:23.786Z,99447.15
2024-04-03T12:05:52.165Z,99451.84
2024-04-03T12:08:23.031Z,99456.67
2024-04-03T12:10:50.076Z,99462.81
2024-04-03T12:13:17.031Z,99457.66
2024-04-03T12:15:48.483Z,99463.81
2024-04-03T12:18:22.127Z,99461.44
2024-04-03T12:20:49.134Z,99462.15
2024-04-03T12:23:17.389Z,99466.52
2024-04-03T12:25:45.344Z,99470.91
2024-04-03T12:28:12.930Z,99464.98
2024-04-03T12:30:40.565Z,99467.27
2024-04-03T12:33:07.745Z,99470.83
2024-04-03T12:35:35.324Z,99468.96
2024-04-03T12:38:20.748Z,99471.62
2024-04-03T12:40:49.629Z,99476.19
2024-04-03T12:43:16.653Z,99473.81
2024-04-03T12:45:43.888Z,99475.80
2024-04-03T12:48:10.897Z,99479.23
2024-04-03T12:50:37.931Z,99474.88
2024-04-03T12:53:06.048Z,99476.05
2024-04-03T12:55:33.221Z,99472.65
2024-04-03T12:58:00.652Z,99478.13
2024-04-03T13:00:27.721Z,99476.65
2024-04-03T13:02:55.688Z,99482.18
2024-04-03T13:05:22.680Z,99483.05
2024-04-03T13:07:49.627Z,99490.50
2024-04-03T13:10:16.505Z,99491.21
2024-04-03T13:12:43.572Z,99487.59
2024-04-03T13:15:12.226Z,99489.42
2024-04-03T13:17:39.462Z,99490.09
2024-04-03T13:20:07.169Z,99486.45
2024-04-03T13:22:34.979Z,99484.86
2024-04-03T13:25:01.934Z,99488.06
2024-04-03T13:27:29.123Z,99486.41
2024-04-03T13:29:56.139Z,99485.02
2024-04-03T13:32:24.144Z,99486.72
2024-04-03T13:34:51.211Z,99485.81
2024-04-03T13:37:23.266Z,99481.46
2024-04-03T13:39:50.232Z,99481.30
2024-04-03T13:42:18.502Z,99481.35
2024-04-03T13:44:46.140Z,99486.08
2024-04-03T13:47:13.084Z,99489.30
2024-04-03T13:49:40.343Z,99487.59
2024-04-03T13:52:10.045Z,99482.34
2024-04-03T13:54:37.945Z,99482.52
2024-04-03T13:57:05.888Z,99476.13
2024-04-03T13:59:33.449Z,99474.94
2024-04-03T14:02:00.303Z,99482.71
2024-04-03T14:04:28.320Z,99486.33
2024-04-03T14:06:56.829Z,99487.30
2024-04-03T14:09:23.727Z,99489.36
2024-04-03T14:11:50.579Z,99498.33
2024-04-03T14:14:17.418Z,99498.27
2024-04-03T14:16:44.523Z,99501.98
2024-04-03T14:19:12.723Z,99500.34
2024-04-03T14:21:39.636Z,99504.23
2024-04-03T14:24:06.496Z,99505.73
2024-04-03T14:26:33.498Z,99508.67
2024-04-03T14:29:00.390Z,99512.27
2024-04-03T14:31:29.434Z,99514.80
2024-04-03T14:33:56.784Z,99510.38
2024-04-03T14:36:23.828Z,99509.48
2024-04-03T14:38:50.983Z,99518.90
2024-04-03T14:41:17.860Z,99523.46
2024-04-03T14:43:44.887Z,99523.50
2024-04-03T14:46:13.299Z,99528.77
2024-04-03T14:48:41.639Z,99528.63
2024-04-03T14:51:11.490Z,99532.20
2024-04-03T14:53:38.478Z,99530.25
2024-04-03T14:56:05.790Z,99530.73
2024-04-03T14:58:35.084Z,99533.80
2024-04-03T15:01:01.930Z,99535.61
2024-04-03T15:03:29.443Z,99538.68
2024-04-03T15:05:56.400Z,99540.50
2024-04-03T15:08:23.483Z,99540.30
2024-04-03T15:10:53.301Z,99541.30
2024-04-03T15:13:20.342Z,99544.50
2024-04-03T15:15:47.488Z,99543.58
2024-04-03T15:18:15.762Z,99548.98
2024-04-03T15:20:46.864Z,99552.26
2024-04-03T15:23:13.840Z,99561.09
2024-04-03T15:25:40.694Z,99563.91
2024-04-03T15:28:07.682Z,99561.85
2024-04-03T19:08:36.706Z,99822.16
2024-04-03T19:11:05.240Z,99820.77
2024-04-03T19:13:32.719Z,99824.59
2024-04-03T19:16:07.710Z,99830.83
2024-04-03T19:18:44.565Z,99830.45
2024-04-03T19:21:12.654Z,99834.39
2024-04-03T19:23:39.655Z,99831.86
2024-04-03T19:26:07.574Z,99836.30
2024-04-03T19:28:36.021Z,99831.77
2024-04-03T19:31:03.085Z,99837.21
2024-04-03T19:33:32.933Z,99836.86
2024-04-03T19:36:00.091Z,99837.90
2024-04-03T19:38:27.535Z,99837.58
2024-04-03T19:40:54.506Z,99841.56
2024-04-03T19:43:23.324Z,99840.88
2024-04-03T19:45:50.967Z,99839.28
2024-04-03T19:48:18.328Z,99839.25
2024-04-03T19:50:46.199Z,99838.35
2024-04-03T19:53:14.150Z,99841.98
2024-04-03T19:55:41.984Z,99847.88
2024-04-03T19:58:08.995Z,99847.94
2024-04-03T20:00:36.608Z,99845.41
2024-04-03T20:03:05.210Z,99850.78
2024-04-03T20:05:32.804Z,99849.45
2024-04-03T20:08:02.232Z,99848.66
2024-04-03T20:10:43.824Z,99850.87
2024-04-03T20:13:11.384Z,99848.27
2024-04-03T20:15:40.718Z,99849.86
2024-04-03T20:18:08.225Z,99846.71
2024-04-03T20:20:44.945Z,99849.21
2024-04-03T20:23:12.711Z,99847.33
2024-04-03T20:25:43.238Z,99849.16
2024-04-03T20:28:10.269Z,99847.16
2024-04-03T20:30:37.304Z,99848.20
2024-04-03T20:33:06.139Z,99848.82
2024-04-03T20:35:39.438Z,99851.63
2024-04-03T20:38:13.053Z,99855.28
2024-04-03T20:40:41.420Z,99858.14
2024-04-03T20:43:08.675Z,99857.01
2024-04-03T20:45:36.634Z,99861.77
2024-04-03T20:48:04.424Z,99859.02
2024-04-03T20:50:31.893Z,99860.64
2024-04-03T20:52:59.222Z,99863.09
2024-04-03T20:55:28.863Z,99859.64
2024-04-03T20:57:56.667Z,99859.00
2024-04-03T21:00:23.581Z,99859.26
2024-04-03T21:02:50.429Z,99860.88
2024-04-03T21:05:17.245Z,99861.15
2024-04-03T21:07:48.543Z,99861.61
2024-04-03T21:10:15.425Z,99859.80
2024-04-03T21:12:48.206Z,99858.30
2024-04-03T21:15:15.812Z,99860.70
2024-04-03T21:17:42.756Z,99859.05
2024-04-03T21:20:12.679Z,99864.75
2024-04-03T21:22:43.723Z,99870.13
2024-04-03T21:25:10.681Z,99867.78
2024-04-03T21:27:37.608Z,99866.50
2024-04-03T21:30:05.198Z,99873.67
2024-04-03T21:32:32.514Z,99873.66
2024-04-03T21:34:59.774Z,99876.76
2024-04-03T21:37:30.136Z,99878.13
2024-04-03T21:39:56.962Z,99877.17
2024-04-03T21:42:24.599Z,99876.37
2024-04-03T21:44:55.915Z,99871.57
2024-04-03T21:47:23.770Z,99870.05
2024-04-03T21:49:50.779Z,99869.44
2024-04-03T21:52:17.952Z,99873.54
2024-04-03T21:54:44.855Z,99874.08
2024-04-03T21:57:11.695Z,99876.14
2024-04-03T21:59:38.514Z,99873.29
2024-04-03T22:02:06.444Z,99873.95
2024-04-03T22:04:33.543Z,99869.83
2024-04-03T22:07:00.478Z,99872.02
2024-04-03T22:09:27.530Z,99867.36
2024-04-03T22:11:54.765Z,99870.17
2024-04-03T22:14:21.744Z,99871.90
2024-04-03T22:16:48.733Z,99869.45
2024-04-03T22:19:15.574Z,99869.62
2024-04-03T22:21:43.357Z,99868.75
2024-04-03T22:24:10.241Z,99870.16
2024-04-03T22:26:37.082Z,99868.08
2024-04-03T22:29:04.050Z,99867.88
2024-04-03T22:31:31.167Z,99867.88
2024-04-03T22:33:58.161Z,99863.98
2024-04-03T22:36:25.012Z,99860.65
2024-04-03T22:38:52.031Z,99860.36
2024-04-03T22:41:19.446Z,99860.46
2024-04-03T22:43:46.382Z,99859.40
2024-04-03T22:46:13.224Z,99861.94
2024-04-03T22:48:40.213Z,99853.12
2024-04-03T22:51:07.124Z,99854.14
2024-04-03T22:53:35.891Z,99846.30
2024-04-03T22:56:03.262Z,99843.11
2024-04-03T22:58:30.650Z,99843.02
2024-04-03T23:00:57.574Z,99848.10
2024-04-03T23:03:24.458Z,99849.08
2024-04-03T23:05:58.360Z,99850.23
2024-04-03T23:08:25.551Z,99854.77
2024-04-03T23:10:56.603Z,99851.05
2024-04-03T23:13:23.766Z,99848.05
2024-04-03T23:15:50.790Z,99850.38
2024-04-03T23:18:18.128Z,99850.18
2024-04-03T23:20:45.386Z,99849.92
2024-04-03T23:23:12.331Z,99848.58
2024-04-03T23:25:39.611Z,99846.91
2024-04-03T23:28:06.645Z,99844.91
2024-04-03T23:30:33.618Z,99843.63
2024-04-03T23:33:00.649Z,99843.72
2024-04-03T23:35:27.606Z,99840.00
2024-04-03T23:37:54.457Z,99837.45
2024-04-03T23:40:21.410Z,99834.56
2024-04-03T23:42:48.425Z,99834.98
2024-04-03T23:45:15.411Z,99833.31
2024-04-03T23:47:42.261Z,99839.86
2024-04-03T23:50:09.416Z,99839.98
2024-04-03T23:52:36.470Z,99835.70
2024-04-03T23:55:04.219Z,99832.42
2024-04-03T23:57:31.451Z,99838.23
2024-04-03T23:59:58.349Z,99839.51
